Terminal Aerodrome Forecast
Issued by NWS

Home | Current Version | Previous Version | Text Only | Print | Product List | Glossary Off
Versions: 1 2 3 4 5 6 7 8 9 10 11 12 13 14 15 16 17 18 19 20 21

654
FTUS41 KCLE 061120
TAFFDY
TAF
KFDY 061120Z 0612/0712 VRB03KT 5SM BR OVC250
     FM061400 23006KT P6SM BKN060
     FM061500 23006KT P6SM BKN250=

USA.gov is the U.S. government's official web portal to all federal, state and local government web resources and services.